UAKK 082300Z VRB01MPS 3000 IC BR SCT004 M31/M35 Q1029 TEMPO 0500 FZFG VV002 RMK QBB140 QFE724/0966
QNH:(hPa/inHg/mmHg)1029 / 30.39 / 772
QFE:(hPa/inHg/mmHg)964 / 28.45 / 723
Temperature-31
Dew Point-35
Visibility0500
WeatherIce crystals;Mist;Freezing Fog
Cloud CoverSCT (400);
VV (200);
Transition Height10000 m./34600 ft.
Transition LevelFL360
SQUAWK